createdAt,value
2022-11-03T00:00:41.360Z,83.56
2022-11-03T00:03:09.232Z,82.52
2022-11-03T00:06:06.450Z,82.86
2022-11-03T00:08:53.400Z,83.49
2022-11-03T00:11:24.524Z,82.71
2022-11-03T00:13:57.995Z,83.98
2022-11-03T00:16:31.568Z,83.52
2022-11-03T00:19:02.897Z,83.14
2022-11-03T00:21:33.357Z,82.56
2022-11-03T00:24:12.765Z,83.74
2022-11-03T00:26:56.950Z,83.05
2022-11-03T00:29:44.854Z,82.98
2022-11-03T00:32:44.849Z,83.50
2022-11-03T00:35:34.476Z,82.79
2022-11-03T00:38:06.200Z,83.81
2022-11-03T00:40:46.635Z,83.14
2022-11-03T00:43:24.680Z,83.07
2022-11-03T00:45:57.769Z,82.73
2022-11-03T00:48:32.816Z,82.48
2022-11-03T00:51:33.584Z,82.71
2022-11-03T00:54:21.819Z,82.99
2022-11-03T00:56:54.235Z,82.94
2022-11-03T00:59:30.139Z,82.78
2022-11-03T01:02:11.648Z,82.27
2022-11-03T01:05:21.577Z,82.60
2022-11-03T01:08:14.350Z,82.79
2022-11-03T01:11:05.479Z,83.49
2022-11-03T01:13:34.400Z,83.45
2022-11-03T01:16:11.508Z,83.22
2022-11-03T01:18:42.459Z,83.06
2022-11-03T01:21:19.972Z,83.55
2022-11-03T01:23:49.518Z,84.08
2022-11-03T01:26:21.920Z,83.62
2022-11-03T01:28:51.471Z,84.41
2022-11-03T01:31:28.030Z,85.25
2022-11-03T01:33:59.120Z,84.93
2022-11-03T01:36:26.614Z,84.92
2022-11-03T01:38:58.073Z,84.68
2022-11-03T01:41:38.251Z,85.55
2022-11-03T01:44:16.561Z,85.10
2022-11-03T01:47:15.303Z,85.15
2022-11-03T01:50:05.690Z,85.03
2022-11-03T01:52:47.521Z,85.86
2022-11-03T01:55:19.796Z,86.28
2022-11-03T01:57:56.648Z,85.81
2022-11-03T02:00:29.121Z,86.11
2022-11-03T02:02:56.764Z,86.75
2022-11-03T02:05:26.806Z,85.63
2022-11-03T02:10:37.579Z,85.81
2022-11-03T02:13:16.506Z,85.64
2022-11-03T02:15:48.781Z,85.92
2022-11-03T02:18:19.815Z,86.45
2022-11-03T02:20:54.010Z,85.94
2022-11-03T02:23:33.275Z,87.19
2022-11-03T02:26:01.048Z,86.59
2022-11-03T02:28:32.685Z,86.23
2022-11-03T02:31:38.593Z,86.07
2022-11-03T02:34:19.720Z,86.19
2022-11-03T02:36:51.799Z,86.82
2022-11-03T02:39:30.048Z,86.55
2022-11-03T02:41:59.200Z,86.09
2022-11-03T02:44:28.087Z,86.17
2022-11-03T02:46:59.246Z,86.31
2022-11-03T02:49:28.799Z,86.63
2022-11-03T02:52:02.715Z,87.01
2022-11-03T02:54:38.583Z,87.40
2022-11-03T02:57:13.776Z,87.81
2022-11-03T02:59:54.478Z,87.08
2022-11-03T03:02:28.385Z,86.70
2022-11-03T03:04:59.848Z,87.03
2022-11-03T03:07:34.229Z,87.35
2022-11-03T03:10:12.739Z,87.27
2022-11-03T03:12:48.536Z,87.09
2022-11-03T03:15:17.840Z,87.27
2022-11-03T03:17:50.961Z,86.74
2022-11-03T03:20:43.539Z,87.45
2022-11-03T03:23:23.226Z,87.51
2022-11-03T03:26:01.358Z,87.70
2022-11-03T03:28:41.763Z,87.44
2022-11-03T03:31:14.747Z,87.68
2022-11-03T03:33:47.620Z,87.67
2022-11-03T03:36:18.803Z,88.03
2022-11-03T03:38:55.408Z,87.25
2022-11-03T03:41:24.795Z,87.90
2022-11-03T03:43:57.970Z,87.35
2022-11-03T03:46:37.000Z,87.98
2022-11-03T03:49:05.640Z,87.69
2022-11-03T03:51:34.066Z,88.05
2022-11-03T03:54:01.324Z,87.70
2022-11-03T03:56:40.128Z,88.35
2022-11-03T03:59:07.525Z,88.28
2022-11-03T04:01:35.165Z,88.73
2022-11-03T04:04:02.114Z,88.02
2022-11-03T04:06:32.015Z,88.71
2022-11-03T04:08:59.068Z,88.55
2022-11-03T04:11:44.748Z,89.09
2022-11-03T04:14:30.560Z,89.16
2022-11-03T04:17:16.337Z,89.07
2022-11-03T04:20:01.713Z,89.21
2022-11-03T04:22:32.144Z,88.51
2022-11-03T04:25:03.188Z,89.08
2022-11-03T04:27:41.095Z,88.87
2022-11-03T04:30:16.871Z,89.08
2022-11-03T04:32:46.598Z,88.85
2022-11-03T04:35:24.784Z,89.24
2022-11-03T04:37:59.055Z,89.41
2022-11-03T04:40:29.463Z,89.36
2022-11-03T04:43:00.501Z,90.02
2022-11-03T04:45:34.154Z,89.67
2022-11-03T04:48:10.286Z,89.75
2022-11-03T04:50:37.294Z,89.60
2022-11-03T04:53:10.582Z,89.77
2022-11-03T04:55:42.986Z,89.50
2022-11-03T04:58:36.954Z,89.24
2022-11-03T05:01:04.756Z,89.30
2022-11-03T05:03:43.281Z,89.06
2022-11-03T05:06:31.442Z,89.89
2022-11-03T05:09:08.010Z,90.90
2022-11-03T05:11:42.900Z,89.05
2022-11-03T05:14:22.283Z,90.46
2022-11-03T05:16:51.367Z,89.93
2022-11-03T05:19:20.878Z,90.57
2022-11-03T05:21:50.276Z,90.04
2022-11-03T05:24:20.839Z,90.30
2022-11-03T05:26:49.754Z,90.28
2022-11-03T05:29:21.492Z,90.37
2022-11-03T05:31:53.759Z,90.06
2022-11-03T05:34:27.365Z,89.71
2022-11-03T05:36:54.331Z,90.47
2022-11-03T05:39:21.451Z,90.69
2022-11-03T05:41:52.474Z,91.17
2022-11-03T05:44:37.113Z,90.91
2022-11-03T05:47:18.948Z,91.18
2022-11-03T05:49:47.239Z,91.89
2022-11-03T05:52:21.705Z,90.67
2022-11-03T05:54:53.999Z,90.78
2022-11-03T05:57:21.447Z,91.87
2022-11-03T05:59:54.111Z,91.37
2022-11-03T06:02:36.087Z,91.27
2022-11-03T06:05:18.755Z,92.29
2022-11-03T06:07:46.903Z,91.43
2022-11-03T06:10:36.811Z,92.43
2022-11-03T06:13:22.749Z,91.79
2022-11-03T06:15:56.685Z,92.03
2022-11-03T06:18:29.869Z,91.79
2022-11-03T06:21:07.963Z,91.47
2022-11-03T06:23:36.807Z,92.43
2022-11-03T06:26:05.681Z,92.76
2022-11-03T06:28:38.115Z,92.44
2022-11-03T06:31:16.637Z,93.06
2022-11-03T06:33:49.343Z,92.90
2022-11-03T06:36:22.798Z,92.57
2022-11-03T06:39:20.095Z,92.34
2022-11-03T06:41:47.417Z,92.14
2022-11-03T06:44:28.526Z,92.38
2022-11-03T06:47:15.336Z,92.90
2022-11-03T06:49:43.610Z,92.56
2022-11-03T06:52:26.148Z,92.71
2022-11-03T06:55:17.248Z,92.33
2022-11-03T06:57:48.636Z,92.05
2022-11-03T07:00:35.445Z,92.23
2022-11-03T07:03:11.492Z,91.42
2022-11-03T07:05:42.197Z,91.55
2022-11-03T07:08:19.556Z,91.46
2022-11-03T07:10:46.558Z,91.69
2022-11-03T07:13:18.114Z,91.64
2022-11-03T07:15:48.488Z,91.60
2022-11-03T07:18:28.994Z,90.73
2022-11-03T07:21:00.672Z,90.66
2022-11-03T07:23:30.635Z,90.85
2022-11-03T07:26:02.202Z,90.45
2022-11-03T07:28:39.946Z,90.25
2022-11-03T07:31:17.314Z,90.03
2022-11-03T07:33:44.491Z,89.73
2022-11-03T07:36:18.554Z,89.89
2022-11-03T07:38:52.867Z,89.29
2022-11-03T07:41:29.520Z,89.13
2022-11-03T07:44:02.590Z,89.37
2022-11-03T07:46:31.944Z,89.61
2022-11-03T07:49:02.851Z,89.93
2022-11-03T07:51:35.758Z,89.63
2022-11-03T07:54:08.642Z,89.27
2022-11-03T07:56:44.655Z,89.34
2022-11-03T07:59:19.205Z,89.27
2022-11-03T08:02:00.526Z,88.72
2022-11-03T08:04:37.899Z,88.46
2022-11-03T08:07:05.193Z,88.13
2022-11-03T08:09:32.210Z,87.63
2022-11-03T08:12:02.583Z,87.65
2022-11-03T08:14:32.131Z,86.87
2022-11-03T08:17:00.240Z,86.34
2022-11-03T08:19:30.969Z,85.38
2022-11-03T08:21:57.833Z,85.15
2022-11-03T08:24:24.819Z,85.13
2022-11-03T08:26:52.317Z,84.53
2022-11-03T08:29:19.600Z,84.16
2022-11-03T08:31:49.295Z,83.96
2022-11-03T08:34:16.515Z,83.80
2022-11-03T08:36:57.293Z,82.80
2022-11-03T08:39:28.160Z,83.39
2022-11-03T08:41:57.972Z,82.93
2022-11-03T08:44:35.284Z,82.93
2022-11-03T08:47:18.794Z,81.99
2022-11-03T08:49:56.353Z,82.14
2022-11-03T08:52:41.154Z,81.80
2022-11-03T08:55:29.101Z,81.79
2022-11-03T08:58:01.835Z,81.37
2022-11-03T09:00:37.043Z,80.88
2022-11-03T09:03:08.530Z,80.80
2022-11-03T09:05:37.867Z,81.38
2022-11-03T09:10:55.002Z,80.30
2022-11-03T09:13:25.732Z,80.75
2022-11-03T09:15:52.934Z,79.82
2022-11-03T09:18:22.790Z,79.51
2022-11-03T09:20:52.392Z,79.27
2022-11-03T09:23:22.189Z,78.87
2022-11-03T09:25:49.549Z,78.77
2022-11-03T09:28:16.466Z,78.75
2022-11-03T09:30:45.698Z,78.48
2022-11-03T09:33:12.756Z,78.02
2022-11-03T09:35:40.712Z,77.71
2022-11-03T09:38:11.342Z,77.66
2022-11-03T09:40:41.375Z,77.45
2022-11-03T09:43:13.806Z,77.68
2022-11-03T09:45:43.781Z,78.01
2022-11-03T09:48:13.269Z,77.68
2022-11-03T09:50:41.040Z,77.59
2022-11-03T09:53:13.711Z,77.61
2022-11-03T09:55:44.132Z,76.88
2022-11-03T09:58:15.104Z,76.66
2022-11-03T10:00:44.129Z,76.77
2022-11-03T10:03:19.892Z,77.21
2022-11-03T10:05:48.547Z,76.63
2022-11-03T10:08:31.430Z,76.04
2022-11-03T10:11:01.158Z,76.41
2022-11-03T10:13:40.956Z,76.01
2022-11-03T10:17:11.145Z,76.16
2022-11-03T10:19:39.385Z,75.96
2022-11-03T10:22:10.837Z,75.05
2022-11-03T10:24:48.928Z,74.82
2022-11-03T10:27:27.172Z,74.19
2022-11-03T10:30:13.039Z,73.70
2022-11-03T10:32:42.842Z,73.68
2022-11-03T10:35:32.926Z,73.21
2022-11-03T10:38:30.616Z,73.20
2022-11-03T10:41:11.883Z,72.96
2022-11-03T10:43:46.098Z,72.54
2022-11-03T10:46:37.002Z,71.98
2022-11-03T10:49:18.914Z,72.23
2022-11-03T10:51:50.600Z,72.15
2022-11-03T10:54:19.875Z,72.12
2022-11-03T10:56:53.877Z,71.56
2022-11-03T10:59:43.851Z,70.42
2022-11-03T11:02:24.371Z,70.44
2022-11-03T11:05:01.834Z,70.08
2022-11-03T11:07:32.949Z,70.08
2022-11-03T11:10:12.074Z,69.32
2022-11-03T11:13:22.148Z,69.59
2022-11-03T11:15:53.292Z,69.44
2022-11-03T11:18:45.657Z,69.00
2022-11-03T11:21:35.756Z,69.16
2022-11-03T11:24:35.926Z,68.63
2022-11-03T11:27:35.337Z,68.94
2022-11-03T11:30:25.232Z,69.00
2022-11-03T11:33:01.199Z,68.59
2022-11-03T11:35:28.355Z,68.74
2022-11-03T11:38:38.710Z,68.27
2022-11-03T11:41:05.926Z,68.54
2022-11-03T11:43:32.974Z,67.86
2022-11-03T11:46:24.672Z,67.58
2022-11-03T11:48:57.142Z,67.23
2022-11-03T11:51:25.917Z,66.20
2022-11-03T11:54:17.619Z,66.74
2022-11-03T11:56:48.911Z,66.16
2022-11-03T11:59:24.295Z,66.86
2022-11-03T12:01:57.661Z,66.51
2022-11-03T12:04:33.543Z,66.07
2022-11-03T12:07:03.776Z,65.52
2022-11-03T12:09:32.773Z,66.25
2022-11-03T12:12:09.229Z,67.21
2022-11-03T12:14:55.175Z,67.20
2022-11-03T12:17:22.986Z,66.71
2022-11-03T12:19:53.123Z,67.24
2022-11-03T12:22:27.308Z,66.53
2022-11-03T12:24:55.856Z,66.16
2022-11-03T12:27:29.321Z,65.99
2022-11-03T12:30:00.885Z,65.36
2022-11-03T12:32:33.371Z,65.69
2022-11-03T12:35:06.862Z,65.26
2022-11-03T12:37:40.365Z,65.46
2022-11-03T12:40:08.054Z,66.09
2022-11-03T12:42:36.373Z,65.28
2022-11-03T12:45:04.137Z,65.10
2022-11-03T12:47:31.301Z,66.14
2022-11-03T12:50:00.348Z,65.72
2022-11-03T12:52:30.622Z,66.14
2022-11-03T12:55:00.639Z,66.02
2022-11-03T12:57:29.605Z,65.48
2022-11-03T12:59:58.813Z,65.52
2022-11-03T13:02:33.913Z,65.27
2022-11-03T13:05:01.736Z,65.72
2022-11-03T13:07:34.550Z,65.51
2022-11-03T13:10:02.052Z,65.30
2022-11-03T13:12:32.179Z,65.55
2022-11-03T13:15:00.193Z,65.70
2022-11-03T13:17:32.271Z,66.28
2022-11-03T13:22:42.599Z,65.98
2022-11-03T13:25:09.808Z,65.99
2022-11-03T13:27:38.626Z,66.25
2022-11-03T13:30:07.885Z,66.22
2022-11-03T13:32:36.891Z,67.14
2022-11-03T13:35:08.135Z,67.41
2022-11-03T13:37:38.592Z,67.06
2022-11-03T13:40:19.181Z,67.09
2022-11-03T13:42:57.329Z,67.80
2022-11-03T13:45:34.282Z,67.51
2022-11-03T13:50:56.344Z,68.01
2022-11-03T13:56:21.203Z,69.39
2022-11-03T14:01:41.948Z,69.48
2022-11-03T14:06:56.514Z,69.95
2022-11-03T14:09:23.763Z,70.06
2022-11-03T14:12:10.837Z,70.70
2022-11-03T14:14:40.113Z,70.27
2022-11-03T14:17:07.350Z,71.61
2022-11-03T14:19:39.815Z,71.25
2022-11-03T14:22:10.124Z,73.08
2022-11-03T14:24:36.984Z,74.19
2022-11-03T14:27:04.060Z,75.33
2022-11-03T14:29:33.671Z,75.30
2022-11-03T14:32:03.451Z,76.04
2022-11-03T14:34:30.368Z,78.63
2022-11-03T14:36:57.595Z,78.22
2022-11-03T14:39:24.545Z,79.28
2022-11-03T14:42:05.957Z,80.71
2022-11-03T14:44:35.161Z,80.45
2022-11-03T14:47:04.114Z,80.71
2022-11-03T14:49:32.452Z,80.83
2022-11-03T14:52:01.646Z,81.45
2022-11-03T14:54:30.584Z,80.04
2022-11-03T14:56:57.665Z,81.31
2022-11-03T14:59:25.593Z,81.98
2022-11-03T15:01:54.416Z,81.41
2022-11-03T15:04:22.499Z,81.60
2022-11-03T15:06:54.139Z,82.65
2022-11-03T15:09:21.006Z,81.74
2022-11-03T15:11:52.152Z,82.17
2022-11-03T15:14:22.166Z,81.68
2022-11-03T15:16:48.931Z,82.60
2022-11-03T15:19:16.111Z,82.54
2022-11-03T15:21:42.871Z,82.44
2022-11-03T15:26:59.890Z,82.51
2022-11-03T15:29:26.820Z,82.68
2022-11-03T15:31:53.856Z,82.97
2022-11-03T15:34:20.786Z,82.24
2022-11-03T15:36:47.892Z,83.16
2022-11-03T15:39:14.728Z,82.76
2022-11-03T15:41:41.826Z,83.08
2022-11-03T15:44:08.921Z,83.43
2022-11-03T15:46:38.211Z,84.06
2022-11-03T15:49:04.992Z,84.26
2022-11-03T15:51:31.996Z,84.11
2022-11-03T15:53:59.493Z,84.60
2022-11-03T15:56:27.511Z,84.41
2022-11-03T15:58:56.461Z,84.61
2022-11-03T16:01:24.175Z,84.03
2022-11-03T16:03:51.597Z,83.81
2022-11-03T16:06:18.518Z,84.59
2022-11-03T16:08:45.210Z,84.08
2022-11-03T16:11:12.264Z,83.94
2022-11-03T16:13:39.629Z,84.21
2022-11-03T16:16:08.424Z,84.03
2022-11-03T16:18:35.368Z,84.08
2022-11-03T16:21:02.217Z,86.20
2022-11-03T16:23:28.976Z,86.83
2022-11-03T16:25:55.983Z,90.65
2022-11-03T16:28:25.228Z,88.81
2022-11-03T16:30:54.703Z,90.29
2022-11-03T16:33:22.327Z,91.76
2022-11-03T16:35:59.627Z,92.85
2022-11-03T16:38:30.277Z,93.57
2022-11-03T16:41:08.324Z,96.35
2022-11-03T16:43:37.748Z,98.39
2022-11-03T16:46:07.048Z,97.58
2022-11-03T16:48:36.629Z,98.72
2022-11-03T16:51:03.974Z,99.44
2022-11-03T16:53:31.463Z,99.87
2022-11-03T16:55:58.929Z,99.44
2022-11-03T16:58:25.946Z,100.00
2022-11-03T17:00:53.122Z,100.00
2022-11-03T17:03:22.700Z,100.00
2022-11-03T17:08:52.344Z,100.00
2022-11-03T17:11:40.469Z,100.00
2022-11-03T17:14:19.114Z,100.00
2022-11-03T17:16:47.501Z,100.00
2022-11-03T17:19:15.679Z,100.00
2022-11-03T17:21:44.853Z,100.00
2022-11-03T17:24:14.067Z,100.00
2022-11-03T17:26:57.751Z,100.00
2022-11-03T17:29:38.906Z,100.00
2022-11-03T17:32:25.265Z,100.00
2022-11-03T17:34:56.074Z,100.00
2022-11-03T17:37:25.538Z,100.00
2022-11-03T17:40:01.418Z,100.00
2022-11-03T17:42:28.919Z,100.00
2022-11-03T17:44:59.598Z,100.00
2022-11-03T17:47:27.129Z,100.00
2022-11-03T17:49:54.211Z,100.00
2022-11-03T17:52:28.355Z,100.00
2022-11-03T17:54:59.023Z,100.00
2022-11-03T17:57:27.068Z,100.00
2022-11-03T17:59:59.001Z,100.00
2022-11-03T18:02:31.934Z,100.00
2022-11-03T18:05:38.278Z,100.00
2022-11-03T18:08:13.277Z,100.00
2022-11-03T18:10:43.474Z,100.00
2022-11-03T18:13:30.024Z,100.00
2022-11-03T18:16:19.362Z,100.00
2022-11-03T18:18:51.517Z,100.00
2022-11-03T18:21:24.996Z,100.00
2022-11-03T18:24:09.084Z,100.00
2022-11-03T18:26:55.709Z,100.00
2022-11-03T18:29:23.677Z,100.00
2022-11-03T18:31:51.020Z,100.00
2022-11-03T18:34:25.838Z,100.00
2022-11-03T18:36:55.650Z,100.00
2022-11-03T18:39:32.354Z,100.00
2022-11-03T18:42:05.418Z,100.00
2022-11-03T18:44:34.607Z,100.00
2022-11-03T18:47:02.684Z,100.00
2022-11-03T18:49:33.214Z,100.00
2022-11-03T18:52:15.861Z,100.00
2022-11-03T18:54:50.399Z,100.00
2022-11-03T18:57:22.909Z,100.00
2022-11-03T18:59:50.182Z,100.00
2022-11-03T19:02:30.661Z,100.00
2022-11-03T19:04:58.013Z,100.00
2022-11-03T19:07:30.436Z,100.00
2022-11-03T19:09:57.836Z,100.00
2022-11-03T19:12:24.797Z,100.00
2022-11-03T19:14:52.110Z,100.00
2022-11-03T19:17:24.814Z,100.00
2022-11-03T19:19:53.033Z,100.00
2022-11-03T19:22:23.316Z,100.00
2022-11-03T19:24:50.185Z,100.00
2022-11-03T19:27:26.593Z,100.00
2022-11-03T19:29:54.735Z,100.00
2022-11-03T19:32:28.132Z,100.00
2022-11-03T19:35:01.687Z,100.00
2022-11-03T19:37:35.407Z,100.00
2022-11-03T19:40:12.048Z,100.00
2022-11-03T19:42:39.715Z,100.00
2022-11-03T19:45:14.662Z,100.00
2022-11-03T19:48:10.748Z,100.00
2022-11-03T19:50:38.826Z,100.00
2022-11-03T19:53:16.264Z,100.00
2022-11-03T19:55:43.244Z,100.00
2022-11-03T19:58:16.449Z,100.00
2022-11-03T20:00:46.367Z,100.00
2022-11-03T20:03:14.722Z,100.00
2022-11-03T20:05:46.602Z,100.00
2022-11-03T20:08:19.165Z,100.00
2022-11-03T20:10:49.285Z,100.00
2022-11-03T20:13:19.278Z,100.00
2022-11-03T20:15:46.909Z,100.00
2022-11-03T20:18:14.552Z,100.00
2022-11-03T20:20:45.077Z,100.00
2022-11-03T20:23:23.496Z,100.00
2022-11-03T20:25:50.568Z,100.00
2022-11-03T20:28:23.309Z,100.00
2022-11-03T20:30:55.174Z,100.00
2022-11-03T20:33:25.023Z,100.00
2022-11-03T20:35:53.912Z,100.00
2022-11-03T20:38:22.883Z,100.00
2022-11-03T20:40:55.700Z,100.00
2022-11-03T20:43:44.368Z,100.00
2022-11-03T20:46:32.764Z,100.00
2022-11-03T20:49:00.513Z,100.00
2022-11-03T20:51:32.117Z,100.00
2022-11-03T20:53:59.808Z,100.00
2022-11-03T20:56:28.734Z,100.00
2022-11-03T20:58:57.213Z,100.00
2022-11-03T21:01:43.527Z,100.00
2022-11-03T21:04:17.250Z,100.00
2022-11-03T21:06:46.583Z,100.00
2022-11-03T21:09:15.724Z,100.00
2022-11-03T21:11:45.112Z,100.00
2022-11-03T21:14:22.152Z,100.00
2022-11-03T21:17:07.380Z,100.00
2022-11-03T21:19:57.707Z,100.00
2022-11-03T21:22:57.674Z,100.00
2022-11-03T21:25:25.443Z,100.00
2022-11-03T21:27:55.335Z,100.00
2022-11-03T21:30:24.981Z,100.00
2022-11-03T21:32:51.807Z,100.00
2022-11-03T21:35:20.960Z,100.00
2022-11-03T21:37:52.200Z,100.00
2022-11-03T21:40:19.423Z,100.00
2022-11-03T21:43:06.053Z,100.00
2022-11-03T21:45:37.468Z,100.00
2022-11-03T21:48:27.176Z,100.00
2022-11-03T21:50:54.349Z,100.00
2022-11-03T21:53:21.356Z,100.00
2022-11-03T21:55:49.642Z,100.00
2022-11-03T21:58:16.671Z,100.00
2022-11-03T22:00:47.655Z,100.00
2022-11-03T22:03:14.951Z,100.00
2022-11-03T22:05:42.270Z,100.00
2022-11-03T22:08:11.200Z,100.00
2022-11-03T22:10:40.423Z,100.00
2022-11-03T22:13:07.755Z,100.00
2022-11-03T22:15:53.589Z,100.00
2022-11-03T22:18:20.478Z,100.00
2022-11-03T22:21:07.019Z,100.00
2022-11-03T22:23:52.591Z,100.00
2022-11-03T22:26:38.482Z,100.00
2022-11-03T22:29:23.942Z,100.00
2022-11-03T22:31:50.897Z,100.00
2022-11-03T22:34:39.857Z,100.00
2022-11-03T22:37:09.259Z,100.00
2022-11-03T22:39:54.701Z,100.00
2022-11-03T22:42:40.971Z,100.00
2022-11-03T22:45:28.883Z,100.00
2022-11-03T22:47:57.617Z,100.00
2022-11-03T22:50:26.813Z,100.00
2022-11-03T22:52:53.820Z,100.00
2022-11-03T22:55:24.521Z,100.00
2022-11-03T22:57:54.458Z,100.00
2022-11-03T23:00:22.997Z,100.00
2022-11-03T23:02:53.957Z,100.00
2022-11-03T23:05:21.103Z,100.00
2022-11-03T23:07:50.106Z,100.00
2022-11-03T23:10:18.382Z,100.00
2022-11-03T23:12:45.433Z,100.00
2022-11-03T23:15:31.278Z,100.00
2022-11-03T23:18:21.412Z,100.00
2022-11-03T23:21:07.021Z,100.00
2022-11-03T23:24:00.420Z,100.00
2022-11-03T23:26:30.874Z,100.00
2022-11-03T23:29:03.310Z,100.00
2022-11-03T23:31:33.912Z,100.00
2022-11-03T23:34:01.250Z,100.00
2022-11-03T23:36:31.198Z,100.00
2022-11-03T23:38:59.916Z,100.00
2022-11-03T23:41:28.203Z,100.00
2022-11-03T23:43:55.977Z,100.00
2022-11-03T23:46:44.010Z,100.00
2022-11-03T23:49:11.375Z,100.00
2022-11-03T23:51:39.188Z,100.00
2022-11-03T23:54:10.847Z,100.00
2022-11-03T23:56:59.952Z,100.00
2022-11-03T23:59:29.556Z,100.00
